sensor_id;sensor_type;location;lat;lon;timestamp;temperature;humidity
56256;DHT22;57229;51.432;-2.598;2023-10-19T00:00:46;12.70;99.90
56256;DHT22;57229;51.432;-2.598;2023-10-19T00:03:18;12.60;99.90
56256;DHT22;57229;51.432;-2.598;2023-10-19T00:05:45;12.60;99.90
56256;DHT22;57229;51.432;-2.598;2023-10-19T00:08:12;12.60;99.90
56256;DHT22;57229;51.432;-2.598;2023-10-19T00:10:39;12.60;99.90
56256;DHT22;57229;51.432;-2.598;2023-10-19T00:13:05;12.60;99.90
56256;DHT22;57229;51.432;-2.598;2023-10-19T00:15:38;12.80;99.90
56256;DHT22;57229;51.432;-2.598;2023-10-19T00:18:15;12.80;99.90
56256;DHT22;57229;51.432;-2.598;2023-10-19T00:20:40;12.90;99.90
56256;DHT22;57229;51.432;-2.598;2023-10-19T00:23:06;12.90;99.90
56256;DHT22;57229;51.432;-2.598;2023-10-19T00:25:32;13.00;99.90
56256;DHT22;57229;51.432;-2.598;2023-10-19T00:28:01;13.00;99.90
56256;DHT22;57229;51.432;-2.598;2023-10-19T00:30:30;13.00;99.90
56256;DHT22;57229;51.432;-2.598;2023-10-19T00:32:57;13.00;99.90
56256;DHT22;57229;51.432;-2.598;2023-10-19T00:35:29;13.00;99.90
56256;DHT22;57229;51.432;-2.598;2023-10-19T00:38:00;13.10;99.90
56256;DHT22;57229;51.432;-2.598;2023-10-19T00:40:53;13.10;99.90
56256;DHT22;57229;51.432;-2.598;2023-10-19T00:43:29;13.10;99.90
56256;DHT22;57229;51.432;-2.598;2023-10-19T00:46:00;13.10;99.90
56256;DHT22;57229;51.432;-2.598;2023-10-19T00:48:28;13.10;99.90
56256;DHT22;57229;51.432;-2.598;2023-10-19T00:50:54;13.10;99.90
56256;DHT22;57229;51.432;-2.598;2023-10-19T00:53:34;13.10;99.90
56256;DHT22;57229;51.432;-2.598;2023-10-19T00:56:01;13.80;99.90
56256;DHT22;57229;51.432;-2.598;2023-10-19T00:58:30;13.10;99.90
56256;DHT22;57229;51.432;-2.598;2023-10-19T01:00:56;13.10;99.90
56256;DHT22;57229;51.432;-2.598;2023-10-19T01:03:25;13.10;99.90
56256;DHT22;57229;51.432;-2.598;2023-10-19T01:05:57;14.10;99.90
56256;DHT22;57229;51.432;-2.598;2023-10-19T01:08:23;13.30;99.90
56256;DHT22;57229;51.432;-2.598;2023-10-19T01:10:52;13.10;99.90
56256;DHT22;57229;51.432;-2.598;2023-10-19T01:13:18;13.20;99.90
56256;DHT22;57229;51.432;-2.598;2023-10-19T01:15:53;13.70;99.90
56256;DHT22;57229;51.432;-2.598;2023-10-19T01:18:19;13.90;99.90
56256;DHT22;57229;51.432;-2.598;2023-10-19T01:20:45;13.30;99.90
56256;DHT22;57229;51.432;-2.598;2023-10-19T01:23:16;13.30;99.90
56256;DHT22;57229;51.432;-2.598;2023-10-19T01:25:51;13.90;99.90
56256;DHT22;57229;51.432;-2.598;2023-10-19T01:28:20;13.30;99.90
56256;DHT22;57229;51.432;-2.598;2023-10-19T01:30:47;13.20;99.90
56256;DHT22;57229;51.432;-2.598;2023-10-19T01:33:17;13.20;99.90
56256;DHT22;57229;51.432;-2.598;2023-10-19T01:35:44;13.20;99.90
56256;DHT22;57229;51.432;-2.598;2023-10-19T01:38:29;13.20;99.90
56256;DHT22;57229;51.432;-2.598;2023-10-19T01:40:57;13.60;99.90
56256;DHT22;57229;51.432;-2.598;2023-10-19T01:43:25;13.20;99.90
56256;DHT22;57229;51.432;-2.598;2023-10-19T01:45:56;13.20;99.90
56256;DHT22;57229;51.432;-2.598;2023-10-19T01:48:22;13.40;99.90
56256;DHT22;57229;51.432;-2.598;2023-10-19T01:51:02;13.40;99.90
56256;DHT22;57229;51.432;-2.598;2023-10-19T01:53:32;13.50;99.90
56256;DHT22;57229;51.432;-2.598;2023-10-19T01:55:58;13.90;99.90
56256;DHT22;57229;51.432;-2.598;2023-10-19T01:58:25;13.60;99.90
56256;DHT22;57229;51.432;-2.598;2023-10-19T02:00:52;14.10;99.90
56256;DHT22;57229;51.432;-2.598;2023-10-19T02:03:21;13.80;99.90
56256;DHT22;57229;51.432;-2.598;2023-10-19T02:06:00;13.80;99.90
56256;DHT22;57229;51.432;-2.598;2023-10-19T02:08:29;13.80;99.90
56256;DHT22;57229;51.432;-2.598;2023-10-19T02:10:54;14.00;99.90
56256;DHT22;57229;51.432;-2.598;2023-10-19T02:13:21;15.00;99.90
56256;DHT22;57229;51.432;-2.598;2023-10-19T02:15:46;14.80;99.90
56256;DHT22;57229;51.432;-2.598;2023-10-19T02:18:12;13.80;99.90
56256;DHT22;57229;51.432;-2.598;2023-10-19T02:20:38;13.80;99.90
56256;DHT22;57229;51.432;-2.598;2023-10-19T02:23:07;13.90;99.90
56256;DHT22;57229;51.432;-2.598;2023-10-19T02:25:33;13.90;99.90
56256;DHT22;57229;51.432;-2.598;2023-10-19T02:28:04;14.00;99.90
56256;DHT22;57229;51.432;-2.598;2023-10-19T02:30:32;14.10;99.90
56256;DHT22;57229;51.432;-2.598;2023-10-19T02:32:59;14.10;99.90
56256;DHT22;57229;51.432;-2.598;2023-10-19T02:35:26;14.20;99.90
56256;DHT22;57229;51.432;-2.598;2023-10-19T02:37:53;14.20;99.90
56256;DHT22;57229;51.432;-2.598;2023-10-19T02:40:20;14.20;99.90
56256;DHT22;57229;51.432;-2.598;2023-10-19T02:42:48;14.30;99.90
56256;DHT22;57229;51.432;-2.598;2023-10-19T02:45:16;14.30;99.90
56256;DHT22;57229;51.432;-2.598;2023-10-19T02:47:45;14.30;99.90
56256;DHT22;57229;51.432;-2.598;2023-10-19T02:50:12;14.30;99.90
56256;DHT22;57229;51.432;-2.598;2023-10-19T02:52:48;14.30;99.90
56256;DHT22;57229;51.432;-2.598;2023-10-19T02:55:14;14.40;99.90
56256;DHT22;57229;51.432;-2.598;2023-10-19T02:57:43;14.80;99.90
56256;DHT22;57229;51.432;-2.598;2023-10-19T03:00:13;14.40;99.90
56256;DHT22;57229;51.432;-2.598;2023-10-19T03:02:40;14.50;99.90
56256;DHT22;57229;51.432;-2.598;2023-10-19T03:05:06;14.50;99.90
56256;DHT22;57229;51.432;-2.598;2023-10-19T03:07:41;14.50;99.90
56256;DHT22;57229;51.432;-2.598;2023-10-19T03:10:10;14.50;99.90
56256;DHT22;57229;51.432;-2.598;2023-10-19T03:12:48;14.60;99.90
56256;DHT22;57229;51.432;-2.598;2023-10-19T03:15:15;15.10;99.90
56256;DHT22;57229;51.432;-2.598;2023-10-19T03:17:41;14.60;99.90
56256;DHT22;57229;51.432;-2.598;2023-10-19T03:20:07;14.70;99.90
56256;DHT22;57229;51.432;-2.598;2023-10-19T03:22:32;14.70;99.90
56256;DHT22;57229;51.432;-2.598;2023-10-19T03:25:00;14.70;99.90
56256;DHT22;57229;51.432;-2.598;2023-10-19T03:27:45;14.80;99.90
56256;DHT22;57229;51.432;-2.598;2023-10-19T03:30:11;14.80;99.90
56256;DHT22;57229;51.432;-2.598;2023-10-19T03:32:41;14.80;99.90
56256;DHT22;57229;51.432;-2.598;2023-10-19T03:35:07;14.90;99.90
56256;DHT22;57229;51.432;-2.598;2023-10-19T03:37:32;14.90;99.90
56256;DHT22;57229;51.432;-2.598;2023-10-19T03:40:00;14.90;99.90
56256;DHT22;57229;51.432;-2.598;2023-10-19T03:42:32;14.80;99.90
56256;DHT22;57229;51.432;-2.598;2023-10-19T03:44:59;14.90;99.90
56256;DHT22;57229;51.432;-2.598;2023-10-19T03:47:27;14.80;99.90
56256;DHT22;57229;51.432;-2.598;2023-10-19T03:50:01;14.90;99.90
56256;DHT22;57229;51.432;-2.598;2023-10-19T03:52:31;15.70;99.90
56256;DHT22;57229;51.432;-2.598;2023-10-19T03:54:57;14.90;99.90
56256;DHT22;57229;51.432;-2.598;2023-10-19T03:57:23;15.00;99.90
56256;DHT22;57229;51.432;-2.598;2023-10-19T03:59:51;15.00;99.90
56256;DHT22;57229;51.432;-2.598;2023-10-19T04:02:25;15.10;99.90
56256;DHT22;57229;51.432;-2.598;2023-10-19T04:04:55;15.20;99.90
56256;DHT22;57229;51.432;-2.598;2023-10-19T04:07:23;15.30;99.90
56256;DHT22;57229;51.432;-2.598;2023-10-19T04:09:55;15.20;99.90
56256;DHT22;57229;51.432;-2.598;2023-10-19T04:12:36;15.80;99.90
56256;DHT22;57229;51.432;-2.598;2023-10-19T04:15:06;15.20;99.90
56256;DHT22;57229;51.432;-2.598;2023-10-19T04:17:41;15.20;99.90
56256;DHT22;57229;51.432;-2.598;2023-10-19T04:20:17;15.30;99.90
56256;DHT22;57229;51.432;-2.598;2023-10-19T04:22:50;15.30;99.90
56256;DHT22;57229;51.432;-2.598;2023-10-19T04:25:17;15.30;99.90
56256;DHT22;57229;51.432;-2.598;2023-10-19T04:27:47;15.30;99.90
56256;DHT22;57229;51.432;-2.598;2023-10-19T04:30:15;15.20;99.90
56256;DHT22;57229;51.432;-2.598;2023-10-19T04:32:50;15.30;99.90
56256;DHT22;57229;51.432;-2.598;2023-10-19T04:35:16;15.20;99.90
56256;DHT22;57229;51.432;-2.598;2023-10-19T04:37:52;15.20;99.90
56256;DHT22;57229;51.432;-2.598;2023-10-19T04:40:22;15.20;99.90
56256;DHT22;57229;51.432;-2.598;2023-10-19T04:42:52;15.20;99.90
56256;DHT22;57229;51.432;-2.598;2023-10-19T04:45:19;15.20;99.90
56256;DHT22;57229;51.432;-2.598;2023-10-19T04:47:45;16.30;99.90
56256;DHT22;57229;51.432;-2.598;2023-10-19T04:50:12;15.30;99.90
56256;DHT22;57229;51.432;-2.598;2023-10-19T04:52:38;15.30;99.90
56256;DHT22;57229;51.432;-2.598;2023-10-19T04:55:04;15.20;99.90
56256;DHT22;57229;51.432;-2.598;2023-10-19T04:57:30;15.30;99.90
56256;DHT22;57229;51.432;-2.598;2023-10-19T04:59:56;15.30;99.90
56256;DHT22;57229;51.432;-2.598;2023-10-19T05:02:22;15.30;99.90
56256;DHT22;57229;51.432;-2.598;2023-10-19T05:04:48;15.30;99.90
56256;DHT22;57229;51.432;-2.598;2023-10-19T05:07:14;15.30;99.90
56256;DHT22;57229;51.432;-2.598;2023-10-19T05:09:43;15.30;99.90
56256;DHT22;57229;51.432;-2.598;2023-10-19T05:12:09;15.30;99.90
56256;DHT22;57229;51.432;-2.598;2023-10-19T05:14:39;15.30;99.90
56256;DHT22;57229;51.432;-2.598;2023-10-19T05:17:05;15.40;99.90
56256;DHT22;57229;51.432;-2.598;2023-10-19T05:19:31;15.30;99.90
56256;DHT22;57229;51.432;-2.598;2023-10-19T05:21:57;15.40;99.90
56256;DHT22;57229;51.432;-2.598;2023-10-19T05:24:23;15.40;99.90
56256;DHT22;57229;51.432;-2.598;2023-10-19T05:26:49;15.40;99.90
56256;DHT22;57229;51.432;-2.598;2023-10-19T05:29:15;15.40;99.90
56256;DHT22;57229;51.432;-2.598;2023-10-19T05:31:41;15.40;99.90
56256;DHT22;57229;51.432;-2.598;2023-10-19T05:34:06;15.40;99.90
56256;DHT22;57229;51.432;-2.598;2023-10-19T05:36:33;15.40;99.90
56256;DHT22;57229;51.432;-2.598;2023-10-19T05:38:59;15.40;99.90
56256;DHT22;57229;51.432;-2.598;2023-10-19T05:41:25;15.30;99.90
56256;DHT22;57229;51.432;-2.598;2023-10-19T05:43:52;15.40;99.90
56256;DHT22;57229;51.432;-2.598;2023-10-19T05:46:19;15.30;99.90
56256;DHT22;57229;51.432;-2.598;2023-10-19T05:48:48;15.30;99.90
56256;DHT22;57229;51.432;-2.598;2023-10-19T05:51:14;15.40;99.90
56256;DHT22;57229;51.432;-2.598;2023-10-19T05:53:40;15.30;99.90
56256;DHT22;57229;51.432;-2.598;2023-10-19T05:56:07;15.40;99.90
56256;DHT22;57229;51.432;-2.598;2023-10-19T05:58:32;15.30;99.90
56256;DHT22;57229;51.432;-2.598;2023-10-19T06:00:59;15.30;99.90
56256;DHT22;57229;51.432;-2.598;2023-10-19T06:03:24;15.30;99.90
56256;DHT22;57229;51.432;-2.598;2023-10-19T06:05:50;15.20;99.90
56256;DHT22;57229;51.432;-2.598;2023-10-19T06:08:15;15.30;99.90
56256;DHT22;57229;51.432;-2.598;2023-10-19T06:10:41;15.20;99.90
56256;DHT22;57229;51.432;-2.598;2023-10-19T06:13:08;15.20;99.90
56256;DHT22;57229;51.432;-2.598;2023-10-19T06:15:35;15.20;99.90
56256;DHT22;57229;51.432;-2.598;2023-10-19T06:18:01;15.20;99.90
56256;DHT22;57229;51.432;-2.598;2023-10-19T06:20:26;15.20;99.90
56256;DHT22;57229;51.432;-2.598;2023-10-19T06:22:58;15.30;99.90
56256;DHT22;57229;51.432;-2.598;2023-10-19T06:25:31;15.30;99.90
56256;DHT22;57229;51.432;-2.598;2023-10-19T06:27:56;15.30;99.90
56256;DHT22;57229;51.432;-2.598;2023-10-19T06:30:23;15.30;99.90
56256;DHT22;57229;51.432;-2.598;2023-10-19T06:32:59;15.30;99.90
56256;DHT22;57229;51.432;-2.598;2023-10-19T06:35:27;15.30;99.90
56256;DHT22;57229;51.432;-2.598;2023-10-19T06:37:54;15.30;99.90
56256;DHT22;57229;51.432;-2.598;2023-10-19T06:40:22;15.30;99.90
56256;DHT22;57229;51.432;-2.598;2023-10-19T06:42:48;15.40;99.90
56256;DHT22;57229;51.432;-2.598;2023-10-19T06:45:16;15.40;99.90
56256;DHT22;57229;51.432;-2.598;2023-10-19T06:47:43;15.40;99.90
56256;DHT22;57229;51.432;-2.598;2023-10-19T06:50:10;15.50;99.90
56256;DHT22;57229;51.432;-2.598;2023-10-19T06:52:37;15.50;99.90
56256;DHT22;57229;51.432;-2.598;2023-10-19T06:55:04;15.40;99.90
56256;DHT22;57229;51.432;-2.598;2023-10-19T06:57:31;15.30;99.90
56256;DHT22;57229;51.432;-2.598;2023-10-19T06:59:58;15.40;99.90
56256;DHT22;57229;51.432;-2.598;2023-10-19T07:02:24;15.30;99.90
56256;DHT22;57229;51.432;-2.598;2023-10-19T07:04:52;15.30;99.90
56256;DHT22;57229;51.432;-2.598;2023-10-19T07:07:17;15.40;99.90
56256;DHT22;57229;51.432;-2.598;2023-10-19T07:09:43;15.40;99.90
56256;DHT22;57229;51.432;-2.598;2023-10-19T07:12:09;15.40;99.90
56256;DHT22;57229;51.432;-2.598;2023-10-19T07:14:34;15.50;99.90
56256;DHT22;57229;51.432;-2.598;2023-10-19T07:17:00;15.50;99.90
56256;DHT22;57229;51.432;-2.598;2023-10-19T07:19:26;15.40;99.90
56256;DHT22;57229;51.432;-2.598;2023-10-19T07:21:51;15.40;99.90
56256;DHT22;57229;51.432;-2.598;2023-10-19T07:24:23;15.40;99.90
56256;DHT22;57229;51.432;-2.598;2023-10-19T07:26:50;15.40;99.90
56256;DHT22;57229;51.432;-2.598;2023-10-19T07:29:27;15.40;99.90
56256;DHT22;57229;51.432;-2.598;2023-10-19T07:31:52;15.50;99.90
56256;DHT22;57229;51.432;-2.598;2023-10-19T07:34:21;15.50;99.90
56256;DHT22;57229;51.432;-2.598;2023-10-19T07:36:51;15.60;99.90
56256;DHT22;57229;51.432;-2.598;2023-10-19T07:39:19;15.60;99.90
56256;DHT22;57229;51.432;-2.598;2023-10-19T07:41:45;15.60;99.90
56256;DHT22;57229;51.432;-2.598;2023-10-19T07:44:12;15.50;99.90
56256;DHT22;57229;51.432;-2.598;2023-10-19T07:46:38;15.50;99.90
56256;DHT22;57229;51.432;-2.598;2023-10-19T07:49:03;15.50;99.90
56256;DHT22;57229;51.432;-2.598;2023-10-19T07:51:29;15.50;99.90
56256;DHT22;57229;51.432;-2.598;2023-10-19T07:53:58;15.50;99.90
56256;DHT22;57229;51.432;-2.598;2023-10-19T07:56:23;15.50;99.90
56256;DHT22;57229;51.432;-2.598;2023-10-19T07:58:50;15.50;99.90
56256;DHT22;57229;51.432;-2.598;2023-10-19T08:01:15;15.50;99.90
56256;DHT22;57229;51.432;-2.598;2023-10-19T08:03:41;15.50;99.90
56256;DHT22;57229;51.432;-2.598;2023-10-19T08:06:07;15.50;99.90
56256;DHT22;57229;51.432;-2.598;2023-10-19T08:08:32;15.60;99.90
56256;DHT22;57229;51.432;-2.598;2023-10-19T08:11:01;15.60;99.90
56256;DHT22;57229;51.432;-2.598;2023-10-19T08:13:27;15.60;99.90
56256;DHT22;57229;51.432;-2.598;2023-10-19T08:15:53;15.60;99.90
56256;DHT22;57229;51.432;-2.598;2023-10-19T08:18:19;15.60;99.90
56256;DHT22;57229;51.432;-2.598;2023-10-19T08:20:45;15.70;99.90
56256;DHT22;57229;51.432;-2.598;2023-10-19T08:23:12;15.80;99.90
56256;DHT22;57229;51.432;-2.598;2023-10-19T08:25:39;15.80;99.90
56256;DHT22;57229;51.432;-2.598;2023-10-19T08:28:05;15.90;99.90
56256;DHT22;57229;51.432;-2.598;2023-10-19T08:30:31;16.10;99.90
56256;DHT22;57229;51.432;-2.598;2023-10-19T08:32:58;16.30;99.90
56256;DHT22;57229;51.432;-2.598;2023-10-19T08:35:24;16.50;99.90
56256;DHT22;57229;51.432;-2.598;2023-10-19T08:37:53;16.60;99.90
56256;DHT22;57229;51.432;-2.598;2023-10-19T08:40:20;16.70;99.90
56256;DHT22;57229;51.432;-2.598;2023-10-19T08:42:47;16.70;99.90
56256;DHT22;57229;51.432;-2.598;2023-10-19T08:45:14;16.70;99.90
56256;DHT22;57229;51.432;-2.598;2023-10-19T08:48:00;16.70;99.90
56256;DHT22;57229;51.432;-2.598;2023-10-19T08:50:33;16.80;99.90
56256;DHT22;57229;51.432;-2.598;2023-10-19T08:53:01;16.80;99.90
56256;DHT22;57229;51.432;-2.598;2023-10-19T08:55:30;16.80;99.90
56256;DHT22;57229;51.432;-2.598;2023-10-19T08:57:57;16.80;99.90
56256;DHT22;57229;51.432;-2.598;2023-10-19T09:00:24;16.90;99.90
56256;DHT22;57229;51.432;-2.598;2023-10-19T09:02:53;16.90;99.90
56256;DHT22;57229;51.432;-2.598;2023-10-19T09:05:20;17.00;99.90
56256;DHT22;57229;51.432;-2.598;2023-10-19T09:07:48;17.00;99.90
56256;DHT22;57229;51.432;-2.598;2023-10-19T09:10:20;17.00;99.90
56256;DHT22;57229;51.432;-2.598;2023-10-19T09:12:59;17.00;99.90
56256;DHT22;57229;51.432;-2.598;2023-10-19T09:15:25;17.10;99.90
56256;DHT22;57229;51.432;-2.598;2023-10-19T09:17:51;17.00;99.90
56256;DHT22;57229;51.432;-2.598;2023-10-19T09:20:20;16.90;99.90
56256;DHT22;57229;51.432;-2.598;2023-10-19T09:22:55;16.80;99.90
56256;DHT22;57229;51.432;-2.598;2023-10-19T09:25:23;16.80;99.90
56256;DHT22;57229;51.432;-2.598;2023-10-19T09:27:50;16.70;99.90
56256;DHT22;57229;51.432;-2.598;2023-10-19T09:30:16;16.60;99.90
56256;DHT22;57229;51.432;-2.598;2023-10-19T09:32:47;16.70;99.90
56256;DHT22;57229;51.432;-2.598;2023-10-19T09:35:17;16.80;99.90
56256;DHT22;57229;51.432;-2.598;2023-10-19T09:37:45;16.80;99.90
56256;DHT22;57229;51.432;-2.598;2023-10-19T09:40:11;16.90;99.90
56256;DHT22;57229;51.432;-2.598;2023-10-19T09:42:49;17.10;99.90
56256;DHT22;57229;51.432;-2.598;2023-10-19T09:45:20;17.20;99.90
56256;DHT22;57229;51.432;-2.598;2023-10-19T09:47:50;17.10;99.90
56256;DHT22;57229;51.432;-2.598;2023-10-19T09:50:17;17.30;99.90
56256;DHT22;57229;51.432;-2.598;2023-10-19T09:52:43;17.60;99.90
56256;DHT22;57229;51.432;-2.598;2023-10-19T09:57:48;19.60;99.90
56256;DHT22;57229;51.432;-2.598;2023-10-19T10:00:17;20.30;99.90
56256;DHT22;57229;51.432;-2.598;2023-10-19T10:02:49;20.00;99.90
56256;DHT22;57229;51.432;-2.598;2023-10-19T10:10:47;19.10;99.90
56256;DHT22;57229;51.432;-2.598;2023-10-19T10:15:54;18.50;99.90
56256;DHT22;57229;51.432;-2.598;2023-10-19T10:18:23;18.30;99.90
56256;DHT22;57229;51.432;-2.598;2023-10-19T10:21:07;18.10;99.90
56256;DHT22;57229;51.432;-2.598;2023-10-19T10:23:56;18.40;99.90
56256;DHT22;57229;51.432;-2.598;2023-10-19T10:26:24;18.70;99.90
56256;DHT22;57229;51.432;-2.598;2023-10-19T10:31:44;18.90;99.90
56256;DHT22;57229;51.432;-2.598;2023-10-19T10:34:41;19.20;99.90
56256;DHT22;57229;51.432;-2.598;2023-10-19T10:39:26;18.70;99.90
56256;DHT22;57229;51.432;-2.598;2023-10-19T10:41:58;18.80;99.90
56256;DHT22;57229;51.432;-2.598;2023-10-19T10:44:41;19.20;99.90
56256;DHT22;57229;51.432;-2.598;2023-10-19T10:47:10;19.30;99.90
56256;DHT22;57229;51.432;-2.598;2023-10-19T10:49:53;19.40;99.90
56256;DHT22;57229;51.432;-2.598;2023-10-19T10:52:34;19.60;99.90
56256;DHT22;57229;51.432;-2.598;2023-10-19T10:55:13;19.90;99.90
56256;DHT22;57229;51.432;-2.598;2023-10-19T10:57:40;20.10;99.90
56256;DHT22;57229;51.432;-2.598;2023-10-19T11:00:14;20.00;99.90
56256;DHT22;57229;51.432;-2.598;2023-10-19T11:02:47;19.80;99.90
56256;DHT22;57229;51.432;-2.598;2023-10-19T11:05:24;20.00;99.90
56256;DHT22;57229;51.432;-2.598;2023-10-19T11:10:35;19.80;99.90
56256;DHT22;57229;51.432;-2.598;2023-10-19T11:13:06;19.90;99.90
56256;DHT22;57229;51.432;-2.598;2023-10-19T11:15:36;19.90;99.90
56256;DHT22;57229;51.432;-2.598;2023-10-19T11:18:05;19.80;99.90
56256;DHT22;57229;51.432;-2.598;2023-10-19T11:20:35;19.40;99.90
56256;DHT22;57229;51.432;-2.598;2023-10-19T11:23:01;19.30;99.90
56256;DHT22;57229;51.432;-2.598;2023-10-19T11:25:28;19.80;99.90
56256;DHT22;57229;51.432;-2.598;2023-10-19T11:27:57;21.10;99.90
56256;DHT22;57229;51.432;-2.598;2023-10-19T11:30:28;22.20;99.90
56256;DHT22;57229;51.432;-2.598;2023-10-19T11:32:56;24.20;99.90
56256;DHT22;57229;51.432;-2.598;2023-10-19T11:35:24;23.70;99.00
56256;DHT22;57229;51.432;-2.598;2023-10-19T11:37:50;22.80;99.90
56256;DHT22;57229;51.432;-2.598;2023-10-19T11:40:20;21.90;99.90
56256;DHT22;57229;51.432;-2.598;2023-10-19T11:42:45;21.20;99.90
56256;DHT22;57229;51.432;-2.598;2023-10-19T11:45:12;21.10;99.90
56256;DHT22;57229;51.432;-2.598;2023-10-19T11:47:38;20.20;99.90
56256;DHT22;57229;51.432;-2.598;2023-10-19T11:50:04;19.60;99.90
56256;DHT22;57229;51.432;-2.598;2023-10-19T11:52:30;19.30;99.90
56256;DHT22;57229;51.432;-2.598;2023-10-19T11:54:56;19.00;99.90
56256;DHT22;57229;51.432;-2.598;2023-10-19T11:57:23;18.80;99.90
56256;DHT22;57229;51.432;-2.598;2023-10-19T11:59:49;18.40;99.90
56256;DHT22;57229;51.432;-2.598;2023-10-19T12:02:18;18.30;99.90
56256;DHT22;57229;51.432;-2.598;2023-10-19T12:04:44;18.30;99.90
56256;DHT22;57229;51.432;-2.598;2023-10-19T12:07:11;18.50;99.90
56256;DHT22;57229;51.432;-2.598;2023-10-19T12:09:37;19.30;99.90
56256;DHT22;57229;51.432;-2.598;2023-10-19T12:12:03;20.50;99.90
56256;DHT22;57229;51.432;-2.598;2023-10-19T12:14:32;21.80;99.90
56256;DHT22;57229;51.432;-2.598;2023-10-19T12:17:00;22.20;99.90
56256;DHT22;57229;51.432;-2.598;2023-10-19T12:19:29;21.40;99.90
56256;DHT22;57229;51.432;-2.598;2023-10-19T12:21:56;20.90;99.90
56256;DHT22;57229;51.432;-2.598;2023-10-19T12:24:21;20.60;99.90
56256;DHT22;57229;51.432;-2.598;2023-10-19T12:26:48;20.60;99.90
56256;DHT22;57229;51.432;-2.598;2023-10-19T12:29:14;20.80;99.90
56256;DHT22;57229;51.432;-2.598;2023-10-19T12:31:42;20.80;99.90
56256;DHT22;57229;51.432;-2.598;2023-10-19T12:34:08;20.90;99.90
56256;DHT22;57229;51.432;-2.598;2023-10-19T12:36:35;20.70;99.90
56256;DHT22;57229;51.432;-2.598;2023-10-19T12:39:01;20.90;99.90
56256;DHT22;57229;51.432;-2.598;2023-10-19T12:41:28;22.20;99.90
56256;DHT22;57229;51.432;-2.598;2023-10-19T12:43:53;23.20;99.90
56256;DHT22;57229;51.432;-2.598;2023-10-19T12:46:33;22.80;99.90
56256;DHT22;57229;51.432;-2.598;2023-10-19T12:49:04;22.20;99.90
56256;DHT22;57229;51.432;-2.598;2023-10-19T12:51:33;21.40;99.90
56256;DHT22;57229;51.432;-2.598;2023-10-19T12:54:00;20.50;99.90
56256;DHT22;57229;51.432;-2.598;2023-10-19T12:56:28;20.00;99.90
56256;DHT22;57229;51.432;-2.598;2023-10-19T12:58:54;19.50;99.90
56256;DHT22;57229;51.432;-2.598;2023-10-19T13:01:20;19.50;99.90
56256;DHT22;57229;51.432;-2.598;2023-10-19T13:03:47;20.60;99.90
56256;DHT22;57229;51.432;-2.598;2023-10-19T13:06:15;21.00;99.90
56256;DHT22;57229;51.432;-2.598;2023-10-19T13:08:41;21.10;99.90
56256;DHT22;57229;51.432;-2.598;2023-10-19T13:11:08;20.60;99.90
56256;DHT22;57229;51.432;-2.598;2023-10-19T13:13:33;19.90;99.90
56256;DHT22;57229;51.432;-2.598;2023-10-19T13:16:01;19.40;99.90
56256;DHT22;57229;51.432;-2.598;2023-10-19T13:18:33;19.20;99.90
56256;DHT22;57229;51.432;-2.598;2023-10-19T13:21:00;19.20;99.90
56256;DHT22;57229;51.432;-2.598;2023-10-19T13:23:37;19.50;99.90
56256;DHT22;57229;51.432;-2.598;2023-10-19T13:26:03;19.70;99.90
56256;DHT22;57229;51.432;-2.598;2023-10-19T13:28:40;20.30;99.90
56256;DHT22;57229;51.432;-2.598;2023-10-19T13:31:07;20.50;99.90
56256;DHT22;57229;51.432;-2.598;2023-10-19T13:33:35;20.20;99.90
56256;DHT22;57229;51.432;-2.598;2023-10-19T13:36:01;19.90;99.90
56256;DHT22;57229;51.432;-2.598;2023-10-19T13:38:27;19.60;99.90
56256;DHT22;57229;51.432;-2.598;2023-10-19T13:40:54;19.40;99.90
56256;DHT22;57229;51.432;-2.598;2023-10-19T13:43:19;19.00;99.90
56256;DHT22;57229;51.432;-2.598;2023-10-19T13:45:46;18.60;99.90
56256;DHT22;57229;51.432;-2.598;2023-10-19T13:48:13;18.20;99.90
56256;DHT22;57229;51.432;-2.598;2023-10-19T13:50:44;17.80;99.90
56256;DHT22;57229;51.432;-2.598;2023-10-19T13:53:11;17.70;99.90
56256;DHT22;57229;51.432;-2.598;2023-10-19T13:55:36;17.50;99.90
56256;DHT22;57229;51.432;-2.598;2023-10-19T13:58:02;17.50;99.90
56256;DHT22;57229;51.432;-2.598;2023-10-19T14:00:28;17.50;99.90
56256;DHT22;57229;51.432;-2.598;2023-10-19T14:03:01;17.20;99.90
56256;DHT22;57229;51.432;-2.598;2023-10-19T14:05:28;17.00;99.90
56256;DHT22;57229;51.432;-2.598;2023-10-19T14:07:55;16.80;99.90
56256;DHT22;57229;51.432;-2.598;2023-10-19T14:10:21;16.70;99.90
56256;DHT22;57229;51.432;-2.598;2023-10-19T14:12:47;16.70;99.90
56256;DHT22;57229;51.432;-2.598;2023-10-19T14:15:19;16.70;99.90
56256;DHT22;57229;51.432;-2.598;2023-10-19T14:17:47;17.20;99.90
56256;DHT22;57229;51.432;-2.598;2023-10-19T14:20:17;18.00;99.90
56256;DHT22;57229;51.432;-2.598;2023-10-19T14:25:10;19.00;99.90
56256;DHT22;57229;51.432;-2.598;2023-10-19T14:27:49;19.10;99.90
56256;DHT22;57229;51.432;-2.598;2023-10-19T14:30:22;18.70;99.90
56256;DHT22;57229;51.432;-2.598;2023-10-19T14:32:49;18.40;99.90
56256;DHT22;57229;51.432;-2.598;2023-10-19T14:35:16;18.40;99.90
56256;DHT22;57229;51.432;-2.598;2023-10-19T14:37:44;18.50;99.90
56256;DHT22;57229;51.432;-2.598;2023-10-19T14:40:15;18.40;99.90
56256;DHT22;57229;51.432;-2.598;2023-10-19T14:42:42;18.20;99.90
56256;DHT22;57229;51.432;-2.598;2023-10-19T14:45:16;18.10;99.90
56256;DHT22;57229;51.432;-2.598;2023-10-19T14:47:49;17.90;99.90
56256;DHT22;57229;51.432;-2.598;2023-10-19T14:50:17;18.20;99.90
56256;DHT22;57229;51.432;-2.598;2023-10-19T14:52:47;18.50;99.90
56256;DHT22;57229;51.432;-2.598;2023-10-19T14:55:14;18.70;99.90
56256;DHT22;57229;51.432;-2.598;2023-10-19T14:57:42;19.10;99.90
56256;DHT22;57229;51.432;-2.598;2023-10-19T15:00:10;19.50;99.90
56256;DHT22;57229;51.432;-2.598;2023-10-19T15:02:53;19.80;99.90
56256;DHT22;57229;51.432;-2.598;2023-10-19T15:05:27;19.90;99.90
56256;DHT22;57229;51.432;-2.598;2023-10-19T15:07:54;20.10;99.90
56256;DHT22;57229;51.432;-2.598;2023-10-19T15:10:30;20.00;99.90
56256;DHT22;57229;51.432;-2.598;2023-10-19T15:12:56;19.60;99.90
56256;DHT22;57229;51.432;-2.598;2023-10-19T15:15:25;19.30;99.90
56256;DHT22;57229;51.432;-2.598;2023-10-19T15:17:51;19.10;99.90
56256;DHT22;57229;51.432;-2.598;2023-10-19T15:20:29;19.10;99.90
56256;DHT22;57229;51.432;-2.598;2023-10-19T15:22:55;19.40;99.90
56256;DHT22;57229;51.432;-2.598;2023-10-19T15:25:22;19.80;99.90
56256;DHT22;57229;51.432;-2.598;2023-10-19T15:27:50;19.60;99.90
56256;DHT22;57229;51.432;-2.598;2023-10-19T15:30:17;18.80;99.90
56256;DHT22;57229;51.432;-2.598;2023-10-19T15:32:43;18.20;99.90
56256;DHT22;57229;51.432;-2.598;2023-10-19T15:35:11;17.80;99.90
56256;DHT22;57229;51.432;-2.598;2023-10-19T15:37:37;17.60;99.90
56256;DHT22;57229;51.432;-2.598;2023-10-19T15:40:04;17.40;99.90
56256;DHT22;57229;51.432;-2.598;2023-10-19T15:42:30;17.30;99.90
56256;DHT22;57229;51.432;-2.598;2023-10-19T15:44:56;17.40;99.90